Greenwood Leflore Airport
KGWO : now visible

Airfield :











YOU CAN JOIN US ON...

 
LOGIN :

Register | Disclaimer

   EN    FR    IT 

 









Legend :    VFR   Marginal VFR   IFR   Intensive IFR   Very Intensive IFR
Visi :
Ceiling :
>= 8 km
>= 3000ft
5 to 8 km
1000 to 3000 ft
1500m to 5 km
500 to 1000 ft
800 to 1500m
200 to 500 ft
< 800m
< 200 ft
Symbols :   Thunderstorms  Fog  Heavy snow  Heavy precipitations  Wind > 20 kt






- Airport Elevation : 162 ft


KGWO - Greenwood Leflore

CURRENT METAR :
  • 291853Z AUTO 17003KT 10SM -RA BKN033 OVC100 17/14 A3004 RMK AO2 RAB52 SLP169 P0000 T01720144

EXPIRED METARs :
  • 291802Z AUTO 15007KT 10SM FEW008 SCT065 OVC110 17/14 A3005 RMK AO2 T01720144
  • 291753Z AUTO 14005KT 10SM FEW038 SCT090 OVC110 17/14 A3006 RMK AO2 RAE49 SLP176 P0004 60011 T01720139 10172 20156 58017
  • 291653Z AUTO 17006KT 9SM -RA OVC100 16/13 A3012 RMK AO2 SLP197 P0005 T01610133
  • 291633Z AUTO 17006KT 9SM -RA FEW019 OVC100 16/13 A3012 RMK AO2 P0003 T01610133
  • 291553Z AUTO 18003KT 4SM RA OVC019 16/13 A3013 RMK AO2 RAB39 SLP202 P0001 T01610133

TAF KGWO
Valid from the 29 at 18:00 until the 30 at 18:00 UTC


291726Z 2918/3018 19010KT P6SM -RA FEW019 OVC100
FM291900 16006KT 4SM -RA BR OVC007
FM300700 01008KT 4SM BR OVC007
KZME FIR / North America



MET'MAP, your aeronautical weather chart ! - Copyright ORBIFLY December 2007 - Disclaimer

ORBIFLY MET'MAP TEAM :

Programming & Development : Alexandra Zaïnal
Original concept : Baudouin d'Aumeries
Technical & hardware support : Manuel Goepfert
Assistance : Marc-Olivier Méhu




SOURCES & CREDITS :

   NOAA       Earth
Advisory